Maddock, North Dakota
Current Conditions -  °F | °C
As of 4:15 PM on Wednesday 28 Jan 2015 (Local Time) from K5H4 Reporting Station
Overcast Overcast  
Wind Chill: 14°   Ceiling: 700
Heat Index: 28°   Visibility: 8mi
Dew Point: 28°   Wind: 23mph
Humidity: 100%   Direction: 330°NNW
Pressure: 29.93"   Gusts: 31mph
Location:  47.96°N, 99.53°W
Report Text: K5H4 282215Z AUTO 33020G27KT 8SM OVC007 M02/M02 A2993 RMK AO2
Loading
Personal Weather Stations






























Interactive Weather Map New forecast layout! Learn more

10-Day Weather Forecast

Advertisements
Track Severe Weather on mobile